sensor_id;sensor_type;location;lat;lon;timestamp;P1;durP1;ratioP1;P2;durP2;ratioP2
6135;SDS011;24008;42.664;23.372;2022-10-24T00:00:30;18.47;;;10.93;;
6135;SDS011;24008;42.664;23.372;2022-10-24T00:02:57;16.77;;;10.33;;
6135;SDS011;24008;42.664;23.372;2022-10-24T00:05:24;21.07;;;11.97;;
6135;SDS011;24008;42.664;23.372;2022-10-24T00:07:51;20.97;;;13.57;;
6135;SDS011;24008;42.664;23.372;2022-10-24T00:10:18;15.73;;;11.10;;
6135;SDS011;24008;42.664;23.372;2022-10-24T00:12:46;21.17;;;12.50;;
6135;SDS011;24008;42.664;23.372;2022-10-24T00:15:13;18.57;;;12.90;;
6135;SDS011;24008;42.664;23.372;2022-10-24T00:17:41;19.20;;;12.60;;
6135;SDS011;24008;42.664;23.372;2022-10-24T00:20:09;20.13;;;11.70;;
6135;SDS011;24008;42.664;23.372;2022-10-24T00:22:36;22.67;;;12.43;;
6135;SDS011;24008;42.664;23.372;2022-10-24T00:25:03;20.03;;;14.23;;
6135;SDS011;24008;42.664;23.372;2022-10-24T00:27:31;19.33;;;12.43;;
6135;SDS011;24008;42.664;23.372;2022-10-24T00:29:59;17.43;;;12.57;;
6135;SDS011;24008;42.664;23.372;2022-10-24T00:32:26;19.37;;;11.43;;
6135;SDS011;24008;42.664;23.372;2022-10-24T00:34:54;23.43;;;13.83;;
6135;SDS011;24008;42.664;23.372;2022-10-24T00:37:21;19.33;;;11.33;;
6135;SDS011;24008;42.664;23.372;2022-10-24T00:39:48;20.27;;;13.27;;
6135;SDS011;24008;42.664;23.372;2022-10-24T00:42:15;20.50;;;13.60;;
6135;SDS011;24008;42.664;23.372;2022-10-24T00:44:41;17.83;;;10.70;;
6135;SDS011;24008;42.664;23.372;2022-10-24T00:47:09;16.73;;;11.63;;
6135;SDS011;24008;42.664;23.372;2022-10-24T00:49:40;20.17;;;11.77;;
6135;SDS011;24008;42.664;23.372;2022-10-24T00:52:13;19.47;;;11.40;;
6135;SDS011;24008;42.664;23.372;2022-10-24T00:54:42;20.43;;;11.27;;
6135;SDS011;24008;42.664;23.372;2022-10-24T00:57:11;13.67;;;10.07;;
6135;SDS011;24008;42.664;23.372;2022-10-24T00:59:42;17.17;;;10.57;;
6135;SDS011;24008;42.664;23.372;2022-10-24T01:02:12;13.03;;;9.93;;
6135;SDS011;24008;42.664;23.372;2022-10-24T01:04:39;14.70;;;10.13;;
6135;SDS011;24008;42.664;23.372;2022-10-24T01:07:19;17.60;;;10.60;;
6135;SDS011;24008;42.664;23.372;2022-10-24T01:10:07;18.43;;;13.27;;
6135;SDS011;24008;42.664;23.372;2022-10-24T01:12:46;32.73;;;22.10;;
6135;SDS011;24008;42.664;23.372;2022-10-24T01:15:22;16.73;;;11.23;;
6135;SDS011;24008;42.664;23.372;2022-10-24T01:17:58;35.63;;;23.80;;
6135;SDS011;24008;42.664;23.372;2022-10-24T01:20:41;35.97;;;23.00;;
6135;SDS011;24008;42.664;23.372;2022-10-24T01:23:25;27.93;;;18.07;;
6135;SDS011;24008;42.664;23.372;2022-10-24T01:26:06;22.27;;;14.37;;
6135;SDS011;24008;42.664;23.372;2022-10-24T01:28:46;23.43;;;13.53;;
6135;SDS011;24008;42.664;23.372;2022-10-24T01:31:23;31.70;;;18.57;;
6135;SDS011;24008;42.664;23.372;2022-10-24T01:33:54;32.93;;;19.70;;
6135;SDS011;24008;42.664;23.372;2022-10-24T01:36:28;28.40;;;19.20;;
6135;SDS011;24008;42.664;23.372;2022-10-24T01:39:02;20.93;;;14.77;;
6135;SDS011;24008;42.664;23.372;2022-10-24T01:41:35;24.47;;;14.87;;
6135;SDS011;24008;42.664;23.372;2022-10-24T01:44:05;30.37;;;19.70;;
6135;SDS011;24008;42.664;23.372;2022-10-24T01:46:37;31.70;;;19.40;;
6135;SDS011;24008;42.664;23.372;2022-10-24T01:49:09;28.10;;;19.53;;
6135;SDS011;24008;42.664;23.372;2022-10-24T01:51:41;21.47;;;13.10;;
6135;SDS011;24008;42.664;23.372;2022-10-24T01:54:10;19.27;;;13.27;;
6135;SDS011;24008;42.664;23.372;2022-10-24T01:56:38;23.97;;;13.50;;
6135;SDS011;24008;42.664;23.372;2022-10-24T01:59:05;28.83;;;17.23;;
6135;SDS011;24008;42.664;23.372;2022-10-24T02:01:32;23.03;;;12.43;;
6135;SDS011;24008;42.664;23.372;2022-10-24T02:04:05;21.73;;;13.47;;
6135;SDS011;24008;42.664;23.372;2022-10-24T02:06:36;17.93;;;12.33;;
6135;SDS011;24008;42.664;23.372;2022-10-24T02:09:08;20.30;;;12.07;;
6135;SDS011;24008;42.664;23.372;2022-10-24T02:11:38;16.97;;;11.90;;
6135;SDS011;24008;42.664;23.372;2022-10-24T02:14:08;24.10;;;14.23;;
6135;SDS011;24008;42.664;23.372;2022-10-24T02:16:39;21.67;;;13.10;;
6135;SDS011;24008;42.664;23.372;2022-10-24T02:19:08;22.03;;;13.83;;
6135;SDS011;24008;42.664;23.372;2022-10-24T02:21:36;18.47;;;13.20;;
6135;SDS011;24008;42.664;23.372;2022-10-24T02:24:11;18.80;;;11.73;;
6135;SDS011;24008;42.664;23.372;2022-10-24T02:26:44;16.43;;;11.30;;
6135;SDS011;24008;42.664;23.372;2022-10-24T02:29:15;16.87;;;10.87;;
6135;SDS011;24008;42.664;23.372;2022-10-24T02:31:46;15.87;;;10.90;;
6135;SDS011;24008;42.664;23.372;2022-10-24T02:34:17;16.77;;;10.77;;
6135;SDS011;24008;42.664;23.372;2022-10-24T02:36:46;14.03;;;10.00;;
6135;SDS011;24008;42.664;23.372;2022-10-24T02:39:15;14.30;;;11.03;;
6135;SDS011;24008;42.664;23.372;2022-10-24T02:41:43;15.93;;;10.67;;
6135;SDS011;24008;42.664;23.372;2022-10-24T02:44:11;20.20;;;14.17;;
6135;SDS011;24008;42.664;23.372;2022-10-24T02:46:40;18.63;;;11.50;;
6135;SDS011;24008;42.664;23.372;2022-10-24T02:49:08;17.17;;;10.43;;
6135;SDS011;24008;42.664;23.372;2022-10-24T02:51:38;19.93;;;11.80;;
6135;SDS011;24008;42.664;23.372;2022-10-24T02:54:07;15.40;;;10.03;;
6135;SDS011;24008;42.664;23.372;2022-10-24T02:56:35;15.40;;;10.13;;
6135;SDS011;24008;42.664;23.372;2022-10-24T02:59:05;15.83;;;10.23;;
6135;SDS011;24008;42.664;23.372;2022-10-24T03:01:32;20.50;;;13.43;;
6135;SDS011;24008;42.664;23.372;2022-10-24T03:03:59;26.43;;;14.87;;
6135;SDS011;24008;42.664;23.372;2022-10-24T03:06:26;21.17;;;13.13;;
6135;SDS011;24008;42.664;23.372;2022-10-24T03:08:54;14.70;;;9.93;;
6135;SDS011;24008;42.664;23.372;2022-10-24T03:11:21;17.07;;;11.40;;
6135;SDS011;24008;42.664;23.372;2022-10-24T03:13:48;20.63;;;13.50;;
6135;SDS011;24008;42.664;23.372;2022-10-24T03:16:15;17.47;;;11.10;;
6135;SDS011;24008;42.664;23.372;2022-10-24T03:18:42;17.93;;;11.83;;
6135;SDS011;24008;42.664;23.372;2022-10-24T03:21:08;20.10;;;13.00;;
6135;SDS011;24008;42.664;23.372;2022-10-24T03:23:35;16.80;;;11.60;;
6135;SDS011;24008;42.664;23.372;2022-10-24T03:26:04;21.00;;;13.90;;
6135;SDS011;24008;42.664;23.372;2022-10-24T03:28:31;19.77;;;12.53;;
6135;SDS011;24008;42.664;23.372;2022-10-24T03:30:57;21.40;;;12.23;;
6135;SDS011;24008;42.664;23.372;2022-10-24T03:33:24;17.33;;;11.27;;
6135;SDS011;24008;42.664;23.372;2022-10-24T03:35:51;16.37;;;10.73;;
6135;SDS011;24008;42.664;23.372;2022-10-24T03:38:18;16.30;;;10.80;;
6135;SDS011;24008;42.664;23.372;2022-10-24T03:40:45;17.60;;;12.50;;
6135;SDS011;24008;42.664;23.372;2022-10-24T03:43:14;15.97;;;10.70;;
6135;SDS011;24008;42.664;23.372;2022-10-24T03:45:41;14.37;;;10.53;;
6135;SDS011;24008;42.664;23.372;2022-10-24T03:48:09;17.53;;;10.87;;
6135;SDS011;24008;42.664;23.372;2022-10-24T03:50:36;17.27;;;11.90;;
6135;SDS011;24008;42.664;23.372;2022-10-24T03:53:03;26.20;;;12.87;;
6135;SDS011;24008;42.664;23.372;2022-10-24T03:55:30;16.87;;;10.73;;
6135;SDS011;24008;42.664;23.372;2022-10-24T03:57:57;19.97;;;11.27;;
6135;SDS011;24008;42.664;23.372;2022-10-24T04:00:25;19.40;;;11.23;;
6135;SDS011;24008;42.664;23.372;2022-10-24T04:02:53;18.83;;;11.83;;
6135;SDS011;24008;42.664;23.372;2022-10-24T04:05:20;19.77;;;12.83;;
6135;SDS011;24008;42.664;23.372;2022-10-24T04:07:47;21.53;;;12.40;;
6135;SDS011;24008;42.664;23.372;2022-10-24T04:10:13;41.57;;;26.43;;
6135;SDS011;24008;42.664;23.372;2022-10-24T04:12:40;20.73;;;13.20;;
6135;SDS011;24008;42.664;23.372;2022-10-24T04:15:07;18.80;;;12.13;;
6135;SDS011;24008;42.664;23.372;2022-10-24T04:17:36;18.60;;;11.43;;
6135;SDS011;24008;42.664;23.372;2022-10-24T04:20:03;20.67;;;13.23;;
6135;SDS011;24008;42.664;23.372;2022-10-24T04:22:30;20.50;;;12.97;;
6135;SDS011;24008;42.664;23.372;2022-10-24T04:24:57;22.63;;;12.70;;
6135;SDS011;24008;42.664;23.372;2022-10-24T04:27:24;21.60;;;12.50;;
6135;SDS011;24008;42.664;23.372;2022-10-24T04:29:51;19.23;;;12.80;;
6135;SDS011;24008;42.664;23.372;2022-10-24T04:32:17;17.90;;;12.87;;
6135;SDS011;24008;42.664;23.372;2022-10-24T04:34:45;19.73;;;12.60;;
6135;SDS011;24008;42.664;23.372;2022-10-24T04:37:12;17.70;;;12.50;;
6135;SDS011;24008;42.664;23.372;2022-10-24T04:39:39;23.40;;;15.43;;
6135;SDS011;24008;42.664;23.372;2022-10-24T04:42:06;24.67;;;13.77;;
6135;SDS011;24008;42.664;23.372;2022-10-24T04:44:33;30.23;;;14.57;;
6135;SDS011;24008;42.664;23.372;2022-10-24T04:46:59;22.03;;;13.50;;
6135;SDS011;24008;42.664;23.372;2022-10-24T04:49:26;22.63;;;14.27;;
6135;SDS011;24008;42.664;23.372;2022-10-24T04:51:54;24.80;;;15.47;;
6135;SDS011;24008;42.664;23.372;2022-10-24T04:54:21;30.20;;;16.87;;
6135;SDS011;24008;42.664;23.372;2022-10-24T04:56:48;32.57;;;17.80;;
6135;SDS011;24008;42.664;23.372;2022-10-24T04:59:14;30.93;;;19.17;;
6135;SDS011;24008;42.664;23.372;2022-10-24T05:01:41;31.17;;;17.73;;
6135;SDS011;24008;42.664;23.372;2022-10-24T05:04:08;35.17;;;18.97;;
6135;SDS011;24008;42.664;23.372;2022-10-24T05:06:35;28.60;;;18.33;;
6135;SDS011;24008;42.664;23.372;2022-10-24T05:09:03;27.07;;;17.13;;
6135;SDS011;24008;42.664;23.372;2022-10-24T05:11:31;32.87;;;17.67;;
6135;SDS011;24008;42.664;23.372;2022-10-24T05:13:58;26.80;;;17.83;;
6135;SDS011;24008;42.664;23.372;2022-10-24T05:16:25;30.07;;;17.50;;
6135;SDS011;24008;42.664;23.372;2022-10-24T05:18:52;35.10;;;18.27;;
6135;SDS011;24008;42.664;23.372;2022-10-24T05:21:18;30.03;;;18.13;;
6135;SDS011;24008;42.664;23.372;2022-10-24T05:23:45;33.17;;;18.13;;
6135;SDS011;24008;42.664;23.372;2022-10-24T05:26:13;37.27;;;18.60;;
6135;SDS011;24008;42.664;23.372;2022-10-24T05:28:40;32.30;;;17.67;;
6135;SDS011;24008;42.664;23.372;2022-10-24T05:31:07;30.87;;;16.77;;
6135;SDS011;24008;42.664;23.372;2022-10-24T05:33:33;31.30;;;18.03;;
6135;SDS011;24008;42.664;23.372;2022-10-24T05:36:00;31.20;;;17.40;;
6135;SDS011;24008;42.664;23.372;2022-10-24T05:38:27;29.40;;;17.83;;
6135;SDS011;24008;42.664;23.372;2022-10-24T05:40:54;32.10;;;19.67;;
6135;SDS011;24008;42.664;23.372;2022-10-24T05:43:22;36.23;;;19.60;;
6135;SDS011;24008;42.664;23.372;2022-10-24T05:45:49;42.20;;;25.97;;
6135;SDS011;24008;42.664;23.372;2022-10-24T05:48:15;40.97;;;24.57;;
6135;SDS011;24008;42.664;23.372;2022-10-24T05:50:42;44.00;;;25.50;;
6135;SDS011;24008;42.664;23.372;2022-10-24T05:53:09;39.73;;;24.63;;
6135;SDS011;24008;42.664;23.372;2022-10-24T05:55:37;47.83;;;29.10;;
6135;SDS011;24008;42.664;23.372;2022-10-24T05:58:04;56.83;;;33.43;;
6135;SDS011;24008;42.664;23.372;2022-10-24T06:00:32;52.97;;;30.70;;
6135;SDS011;24008;42.664;23.372;2022-10-24T06:02:59;42.40;;;27.50;;
6135;SDS011;24008;42.664;23.372;2022-10-24T06:05:26;40.73;;;27.70;;
6135;SDS011;24008;42.664;23.372;2022-10-24T06:07:53;43.60;;;25.63;;
6135;SDS011;24008;42.664;23.372;2022-10-24T06:10:20;46.67;;;27.00;;
6135;SDS011;24008;42.664;23.372;2022-10-24T06:12:47;43.97;;;28.00;;
6135;SDS011;24008;42.664;23.372;2022-10-24T06:15:13;42.03;;;27.67;;
6135;SDS011;24008;42.664;23.372;2022-10-24T06:17:41;47.60;;;28.90;;
6135;SDS011;24008;42.664;23.372;2022-10-24T06:20:09;46.93;;;27.73;;
6135;SDS011;24008;42.664;23.372;2022-10-24T06:22:36;43.23;;;27.13;;
6135;SDS011;24008;42.664;23.372;2022-10-24T06:25:03;46.13;;;26.93;;
6135;SDS011;24008;42.664;23.372;2022-10-24T06:27:30;42.37;;;26.13;;
6135;SDS011;24008;42.664;23.372;2022-10-24T06:29:57;43.13;;;25.77;;
6135;SDS011;24008;42.664;23.372;2022-10-24T06:32:23;44.13;;;25.80;;
6135;SDS011;24008;42.664;23.372;2022-10-24T06:34:52;41.83;;;25.57;;
6135;SDS011;24008;42.664;23.372;2022-10-24T06:37:18;42.73;;;25.63;;
6135;SDS011;24008;42.664;23.372;2022-10-24T06:39:45;46.80;;;25.30;;
6135;SDS011;24008;42.664;23.372;2022-10-24T06:42:12;35.07;;;23.80;;
6135;SDS011;24008;42.664;23.372;2022-10-24T06:44:39;45.83;;;26.30;;
6135;SDS011;24008;42.664;23.372;2022-10-24T06:47:05;43.50;;;24.23;;
6135;SDS011;24008;42.664;23.372;2022-10-24T06:49:32;35.00;;;21.00;;
6135;SDS011;24008;42.664;23.372;2022-10-24T06:52:00;36.77;;;20.30;;
6135;SDS011;24008;42.664;23.372;2022-10-24T06:54:27;30.00;;;18.97;;
6135;SDS011;24008;42.664;23.372;2022-10-24T06:56:55;31.10;;;18.13;;
6135;SDS011;24008;42.664;23.372;2022-10-24T06:59:21;28.83;;;18.80;;
6135;SDS011;24008;42.664;23.372;2022-10-24T07:01:48;26.50;;;18.07;;
6135;SDS011;24008;42.664;23.372;2022-10-24T07:04:15;28.43;;;18.00;;
6135;SDS011;24008;42.664;23.372;2022-10-24T07:06:42;29.00;;;18.40;;
6135;SDS011;24008;42.664;23.372;2022-10-24T07:09:10;25.80;;;17.33;;
6135;SDS011;24008;42.664;23.372;2022-10-24T07:11:37;27.90;;;20.23;;
6135;SDS011;24008;42.664;23.372;2022-10-24T07:14:04;28.10;;;20.03;;
6135;SDS011;24008;42.664;23.372;2022-10-24T07:16:33;43.10;;;20.00;;
6135;SDS011;24008;42.664;23.372;2022-10-24T07:19:00;32.22;;;20.38;;
6135;SDS011;24008;42.664;23.372;2022-10-24T07:21:27;36.45;;;21.52;;
6135;SDS011;24008;42.664;23.372;2022-10-24T07:23:56;35.33;;;21.40;;
6135;SDS011;24008;42.664;23.372;2022-10-24T07:26:25;32.15;;;20.67;;
6135;SDS011;24008;42.664;23.372;2022-10-24T07:28:54;31.38;;;20.48;;
6135;SDS011;24008;42.664;23.372;2022-10-24T07:31:26;31.90;;;19.30;;
6135;SDS011;24008;42.664;23.372;2022-10-24T07:33:54;31.63;;;20.63;;
6135;SDS011;24008;42.664;23.372;2022-10-24T07:36:22;39.00;;;20.58;;
6135;SDS011;24008;42.664;23.372;2022-10-24T07:38:51;35.03;;;20.08;;
6135;SDS011;24008;42.664;23.372;2022-10-24T07:41:19;35.00;;;19.38;;
6135;SDS011;24008;42.664;23.372;2022-10-24T07:43:49;28.75;;;18.92;;
6135;SDS011;24008;42.664;23.372;2022-10-24T07:46:17;30.10;;;18.25;;
6135;SDS011;24008;42.664;23.372;2022-10-24T07:48:44;30.98;;;18.17;;
6135;SDS011;24008;42.664;23.372;2022-10-24T07:51:14;34.80;;;20.15;;
6135;SDS011;24008;42.664;23.372;2022-10-24T07:53:41;25.15;;;18.50;;
6135;SDS011;24008;42.664;23.372;2022-10-24T07:56:09;29.45;;;19.85;;
6135;SDS011;24008;42.664;23.372;2022-10-24T07:58:38;31.80;;;19.67;;
6135;SDS011;24008;42.664;23.372;2022-10-24T08:01:08;31.73;;;20.95;;
6135;SDS011;24008;42.664;23.372;2022-10-24T08:03:37;29.10;;;18.85;;
6135;SDS011;24008;42.664;23.372;2022-10-24T08:06:04;29.08;;;19.02;;
6135;SDS011;24008;42.664;23.372;2022-10-24T08:08:31;33.55;;;21.35;;
6135;SDS011;24008;42.664;23.372;2022-10-24T08:10:58;39.13;;;23.88;;
6135;SDS011;24008;42.664;23.372;2022-10-24T08:13:25;33.80;;;23.52;;
6135;SDS011;24008;42.664;23.372;2022-10-24T08:15:52;36.08;;;22.77;;
6135;SDS011;24008;42.664;23.372;2022-10-24T08:18:21;30.20;;;22.05;;
6135;SDS011;24008;42.664;23.372;2022-10-24T08:20:55;34.80;;;21.63;;
6135;SDS011;24008;42.664;23.372;2022-10-24T08:23:22;40.85;;;21.02;;
6135;SDS011;24008;42.664;23.372;2022-10-24T08:25:49;28.80;;;18.45;;
6135;SDS011;24008;42.664;23.372;2022-10-24T08:28:16;30.75;;;19.25;;
6135;SDS011;24008;42.664;23.372;2022-10-24T08:30:43;30.45;;;18.35;;
6135;SDS011;24008;42.664;23.372;2022-10-24T08:33:09;26.30;;;17.67;;
6135;SDS011;24008;42.664;23.372;2022-10-24T08:35:37;41.50;;;20.52;;
6135;SDS011;24008;42.664;23.372;2022-10-24T08:38:04;33.58;;;18.45;;
6135;SDS011;24008;42.664;23.372;2022-10-24T08:40:31;30.77;;;18.90;;
6135;SDS011;24008;42.664;23.372;2022-10-24T08:42:58;36.85;;;18.55;;
6135;SDS011;24008;42.664;23.372;2022-10-24T08:45:25;28.20;;;17.35;;
6135;SDS011;24008;42.664;23.372;2022-10-24T08:47:57;27.25;;;16.70;;
6135;SDS011;24008;42.664;23.372;2022-10-24T08:50:30;29.35;;;17.63;;
6135;SDS011;24008;42.664;23.372;2022-10-24T08:53:00;24.27;;;17.25;;
6135;SDS011;24008;42.664;23.372;2022-10-24T08:55:33;26.45;;;17.40;;
6135;SDS011;24008;42.664;23.372;2022-10-24T08:58:04;27.77;;;16.60;;
6135;SDS011;24008;42.664;23.372;2022-10-24T09:00:37;25.75;;;15.63;;
6135;SDS011;24008;42.664;23.372;2022-10-24T09:03:09;24.73;;;15.32;;
6135;SDS011;24008;42.664;23.372;2022-10-24T09:05:44;28.80;;;14.50;;
6135;SDS011;24008;42.664;23.372;2022-10-24T09:08:16;23.17;;;13.63;;
6135;SDS011;24008;42.664;23.372;2022-10-24T09:10:52;30.00;;;15.60;;
6135;SDS011;24008;42.664;23.372;2022-10-24T09:13:24;26.45;;;14.88;;
6135;SDS011;24008;42.664;23.372;2022-10-24T09:15:52;24.02;;;15.20;;
6135;SDS011;24008;42.664;23.372;2022-10-24T09:18:20;28.42;;;14.23;;
6135;SDS011;24008;42.664;23.372;2022-10-24T09:20:51;22.52;;;13.50;;
6135;SDS011;24008;42.664;23.372;2022-10-24T09:23:21;22.48;;;13.40;;
6135;SDS011;24008;42.664;23.372;2022-10-24T09:25:49;24.55;;;14.20;;
6135;SDS011;24008;42.664;23.372;2022-10-24T09:28:18;25.27;;;15.70;;
6135;SDS011;24008;42.664;23.372;2022-10-24T09:30:46;22.90;;;13.48;;
6135;SDS011;24008;42.664;23.372;2022-10-24T09:33:17;18.25;;;11.63;;
6135;SDS011;24008;42.664;23.372;2022-10-24T09:35:50;25.00;;;11.38;;
6135;SDS011;24008;42.664;23.372;2022-10-24T09:38:30;25.02;;;11.52;;
6135;SDS011;24008;42.664;23.372;2022-10-24T09:40:59;30.02;;;11.38;;
6135;SDS011;24008;42.664;23.372;2022-10-24T09:43:31;25.80;;;11.07;;
6135;SDS011;24008;42.664;23.372;2022-10-24T09:46:05;28.70;;;10.32;;
6135;SDS011;24008;42.664;23.372;2022-10-24T09:48:42;22.00;;;10.90;;
6135;SDS011;24008;42.664;23.372;2022-10-24T09:51:17;18.48;;;9.25;;
6135;SDS011;24008;42.664;23.372;2022-10-24T09:53:58;22.58;;;9.50;;
6135;SDS011;24008;42.664;23.372;2022-10-24T09:56:35;23.85;;;8.77;;
6135;SDS011;24008;42.664;23.372;2022-10-24T09:59:24;22.40;;;8.93;;
6135;SDS011;24008;42.664;23.372;2022-10-24T10:02:03;15.43;;;8.07;;
6135;SDS011;24008;42.664;23.372;2022-10-24T10:04:39;12.82;;;7.45;;
6135;SDS011;24008;42.664;23.372;2022-10-24T10:07:07;11.32;;;6.63;;
6135;SDS011;24008;42.664;23.372;2022-10-24T10:09:37;14.57;;;7.32;;
6135;SDS011;24008;42.664;23.372;2022-10-24T10:12:23;14.55;;;7.85;;
6135;SDS011;24008;42.664;23.372;2022-10-24T10:14:51;14.95;;;6.93;;
6135;SDS011;24008;42.664;23.372;2022-10-24T10:17:20;12.40;;;7.38;;
6135;SDS011;24008;42.664;23.372;2022-10-24T10:19:49;10.18;;;6.90;;
6135;SDS011;24008;42.664;23.372;2022-10-24T10:22:21;13.20;;;7.00;;
6135;SDS011;24008;42.664;23.372;2022-10-24T10:24:51;13.43;;;6.55;;
6135;SDS011;24008;42.664;23.372;2022-10-24T10:27:30;16.30;;;7.07;;
6135;SDS011;24008;42.664;23.372;2022-10-24T10:30:06;16.58;;;6.88;;
6135;SDS011;24008;42.664;23.372;2022-10-24T10:32:41;12.82;;;7.05;;
6135;SDS011;24008;42.664;23.372;2022-10-24T10:35:15;14.50;;;7.38;;
6135;SDS011;24008;42.664;23.372;2022-10-24T10:37:47;13.30;;;7.60;;
6135;SDS011;24008;42.664;23.372;2022-10-24T10:40:21;12.88;;;6.65;;
6135;SDS011;24008;42.664;23.372;2022-10-24T10:43:04;16.75;;;7.63;;
6135;SDS011;24008;42.664;23.372;2022-10-24T10:45:44;16.90;;;7.43;;
6135;SDS011;24008;42.664;23.372;2022-10-24T10:48:22;17.77;;;7.45;;
6135;SDS011;24008;42.664;23.372;2022-10-24T10:51:01;11.93;;;6.70;;
6135;SDS011;24008;42.664;23.372;2022-10-24T10:53:36;16.80;;;7.57;;
6135;SDS011;24008;42.664;23.372;2022-10-24T10:56:12;13.88;;;7.18;;
6135;SDS011;24008;42.664;23.372;2022-10-24T10:58:47;20.50;;;7.53;;
6135;SDS011;24008;42.664;23.372;2022-10-24T11:01:21;19.25;;;7.70;;
6135;SDS011;24008;42.664;23.372;2022-10-24T11:03:57;15.23;;;7.25;;
6135;SDS011;24008;42.664;23.372;2022-10-24T11:06:33;20.77;;;7.60;;
6135;SDS011;24008;42.664;23.372;2022-10-24T11:12:01;14.77;;;7.15;;
6135;SDS011;24008;42.664;23.372;2022-10-24T11:14:33;16.70;;;7.90;;
6135;SDS011;24008;42.664;23.372;2022-10-24T11:17:06;14.32;;;7.38;;
6135;SDS011;24008;42.664;23.372;2022-10-24T11:22:27;13.50;;;7.45;;
6135;SDS011;24008;42.664;23.372;2022-10-24T11:24:59;21.25;;;8.02;;
6135;SDS011;24008;42.664;23.372;2022-10-24T11:27:33;14.30;;;7.40;;
6135;SDS011;24008;42.664;23.372;2022-10-24T11:30:11;14.18;;;6.90;;
6135;SDS011;24008;42.664;23.372;2022-10-24T11:32:41;18.90;;;8.82;;
6135;SDS011;24008;42.664;23.372;2022-10-24T11:35:16;12.65;;;7.53;;
6135;SDS011;24008;42.664;23.372;2022-10-24T11:37:50;18.52;;;7.40;;
6135;SDS011;24008;42.664;23.372;2022-10-24T11:40:21;20.20;;;8.50;;
6135;SDS011;24008;42.664;23.372;2022-10-24T11:42:52;13.32;;;7.45;;
6135;SDS011;24008;42.664;23.372;2022-10-24T11:45:23;17.23;;;7.60;;
6135;SDS011;24008;42.664;23.372;2022-10-24T11:47:59;20.77;;;7.80;;
6135;SDS011;24008;42.664;23.372;2022-10-24T11:50:37;17.02;;;8.50;;
6135;SDS011;24008;42.664;23.372;2022-10-24T11:53:12;21.90;;;7.97;;
6135;SDS011;24008;42.664;23.372;2022-10-24T11:55:49;18.10;;;8.32;;
6135;SDS011;24008;42.664;23.372;2022-10-24T11:58:22;22.75;;;8.30;;
6135;SDS011;24008;42.664;23.372;2022-10-24T12:00:58;23.55;;;8.68;;
6135;SDS011;24008;42.664;23.372;2022-10-24T12:03:53;21.38;;;7.38;;
6135;SDS011;24008;42.664;23.372;2022-10-24T12:06:36;26.95;;;8.23;;
6135;SDS011;24008;42.664;23.372;2022-10-24T12:09:30;15.43;;;8.00;;
6135;SDS011;24008;42.664;23.372;2022-10-24T12:12:09;24.75;;;8.32;;
6135;SDS011;24008;42.664;23.372;2022-10-24T12:17:36;17.48;;;8.07;;
6135;SDS011;24008;42.664;23.372;2022-10-24T12:20:12;17.92;;;8.75;;
6135;SDS011;24008;42.664;23.372;2022-10-24T12:22:41;22.60;;;10.68;;
6135;SDS011;24008;42.664;23.372;2022-10-24T12:25:16;20.00;;;7.88;;
6135;SDS011;24008;42.664;23.372;2022-10-24T12:27:51;19.75;;;8.55;;
6135;SDS011;24008;42.664;23.372;2022-10-24T12:30:22;19.77;;;8.68;;
6135;SDS011;24008;42.664;23.372;2022-10-24T12:32:51;16.70;;;9.35;;
6135;SDS011;24008;42.664;23.372;2022-10-24T12:41:35;22.27;;;8.68;;
6135;SDS011;24008;42.664;23.372;2022-10-24T12:53:01;25.60;;;10.05;;
6135;SDS011;24008;42.664;23.372;2022-10-24T12:55:59;23.30;;;8.82;;
6135;SDS011;24008;42.664;23.372;2022-10-24T12:58:33;27.85;;;8.35;;
6135;SDS011;24008;42.664;23.372;2022-10-24T13:01:03;21.52;;;8.60;;
6135;SDS011;24008;42.664;23.372;2022-10-24T13:03:38;37.33;;;19.63;;
6135;SDS011;24008;42.664;23.372;2022-10-24T13:06:20;26.75;;;14.55;;
6135;SDS011;24008;42.664;23.372;2022-10-24T13:11:52;28.20;;;8.82;;
6135;SDS011;24008;42.664;23.372;2022-10-24T13:14:36;21.02;;;9.38;;
6135;SDS011;24008;42.664;23.372;2022-10-24T13:17:17;16.05;;;8.30;;
6135;SDS011;24008;42.664;23.372;2022-10-24T13:20:01;24.25;;;8.70;;
6135;SDS011;24008;42.664;23.372;2022-10-24T13:22:32;21.02;;;10.85;;
6135;SDS011;24008;42.664;23.372;2022-10-24T13:25:16;21.35;;;9.00;;
6135;SDS011;24008;42.664;23.372;2022-10-24T13:27:45;17.83;;;7.82;;
6135;SDS011;24008;42.664;23.372;2022-10-24T13:31:37;17.25;;;9.65;;
6135;SDS011;24008;42.664;23.372;2022-10-24T13:34:05;18.23;;;8.20;;
6135;SDS011;24008;42.664;23.372;2022-10-24T13:36:40;24.98;;;7.72;;
6135;SDS011;24008;42.664;23.372;2022-10-24T13:39:09;24.85;;;11.93;;
6135;SDS011;24008;42.664;23.372;2022-10-24T13:41:42;22.77;;;8.77;;
6135;SDS011;24008;42.664;23.372;2022-10-24T13:44:15;18.73;;;8.40;;
6135;SDS011;24008;42.664;23.372;2022-10-24T13:46:48;23.10;;;8.40;;
6135;SDS011;24008;42.664;23.372;2022-10-24T13:49:20;19.20;;;8.18;;
6135;SDS011;24008;42.664;23.372;2022-10-24T13:51:55;24.50;;;10.77;;
6135;SDS011;24008;42.664;23.372;2022-10-24T13:54:29;20.60;;;9.02;;
6135;SDS011;24008;42.664;23.372;2022-10-24T13:57:00;21.75;;;8.63;;
6135;SDS011;24008;42.664;23.372;2022-10-24T13:59:30;21.80;;;8.30;;
6135;SDS011;24008;42.664;23.372;2022-10-24T14:01:59;23.38;;;8.60;;
6135;SDS011;24008;42.664;23.372;2022-10-24T14:04:30;24.58;;;9.25;;
6135;SDS011;24008;42.664;23.372;2022-10-24T14:07:01;25.33;;;9.57;;
6135;SDS011;24008;42.664;23.372;2022-10-24T14:09:29;22.08;;;9.73;;
6135;SDS011;24008;42.664;23.372;2022-10-24T14:12:24;25.80;;;10.82;;
6135;SDS011;24008;42.664;23.372;2022-10-24T14:14:55;23.23;;;8.95;;
6135;SDS011;24008;42.664;23.372;2022-10-24T14:17:24;19.35;;;8.30;;
6135;SDS011;24008;42.664;23.372;2022-10-24T14:19:54;23.30;;;8.68;;
6135;SDS011;24008;42.664;23.372;2022-10-24T14:22:24;18.27;;;8.57;;
6135;SDS011;24008;42.664;23.372;2022-10-24T14:24:53;24.05;;;9.10;;
6135;SDS011;24008;42.664;23.372;2022-10-24T14:27:20;30.35;;;8.73;;
6135;SDS011;24008;42.664;23.372;2022-10-24T14:29:52;21.25;;;8.20;;
6135;SDS011;24008;42.664;23.372;2022-10-24T14:32:22;20.25;;;8.55;;
6135;SDS011;24008;42.664;23.372;2022-10-24T14:34:51;22.98;;;8.40;;
6135;SDS011;24008;42.664;23.372;2022-10-24T14:37:25;29.80;;;8.25;;
6135;SDS011;24008;42.664;23.372;2022-10-24T14:39:56;23.17;;;9.15;;
6135;SDS011;24008;42.664;23.372;2022-10-24T14:42:24;30.30;;;8.75;;
6135;SDS011;24008;42.664;23.372;2022-10-24T14:44:51;24.15;;;8.77;;
6135;SDS011;24008;42.664;23.372;2022-10-24T14:47:24;28.25;;;16.48;;
6135;SDS011;24008;42.664;23.372;2022-10-24T14:49:53;27.42;;;9.18;;
6135;SDS011;24008;42.664;23.372;2022-10-24T14:52:24;22.55;;;8.80;;
6135;SDS011;24008;42.664;23.372;2022-10-24T14:54:59;20.13;;;9.13;;
6135;SDS011;24008;42.664;23.372;2022-10-24T14:57:28;21.42;;;8.35;;
6135;SDS011;24008;42.664;23.372;2022-10-24T14:59:57;35.50;;;9.48;;
6135;SDS011;24008;42.664;23.372;2022-10-24T15:02:31;28.13;;;8.90;;
6135;SDS011;24008;42.664;23.372;2022-10-24T15:07:55;34.95;;;10.35;;
6135;SDS011;24008;42.664;23.372;2022-10-24T15:10:30;35.63;;;11.43;;
6135;SDS011;24008;42.664;23.372;2022-10-24T15:13:01;29.27;;;10.75;;
6135;SDS011;24008;42.664;23.372;2022-10-24T15:15:45;35.75;;;11.40;;